createdAt,value
2018-07-07T00:00:26.355Z,98377.30
2018-07-07T00:02:55.583Z,98378.36
2018-07-07T00:05:24.800Z,98374.05
2018-07-07T00:07:54.041Z,98377.79
2018-07-07T00:10:23.242Z,98369.70
2018-07-07T00:12:52.430Z,98375.63
2018-07-07T00:15:22.139Z,98367.28
2018-07-07T00:17:51.459Z,98371.30
2018-07-07T00:20:20.722Z,98368.85
2018-07-07T00:22:49.889Z,98374.75
2018-07-07T00:25:21.234Z,98370.45
2018-07-07T00:27:51.139Z,98372.07
2018-07-07T00:30:20.582Z,98372.85
2018-07-07T00:32:49.826Z,98374.47
2018-07-07T00:35:19.092Z,98370.98
2018-07-07T00:37:48.309Z,98376.00
2018-07-07T00:40:17.503Z,98371.95
2018-07-07T00:42:46.690Z,98371.92
2018-07-07T00:45:15.869Z,98374.36
2018-07-07T00:47:45.063Z,98374.11
2018-07-07T00:50:14.009Z,98372.23
2018-07-07T00:52:43.202Z,98374.19
2018-07-07T00:55:12.462Z,98374.38
2018-07-07T00:57:41.658Z,98394.72
2018-07-07T01:00:10.908Z,98386.92
2018-07-07T01:02:40.127Z,98387.73
2018-07-07T01:05:25.090Z,98383.44
2018-07-07T01:07:54.449Z,98383.44
2018-07-07T01:10:23.666Z,98385.55
2018-07-07T01:12:52.625Z,98381.20
2018-07-07T01:15:21.858Z,98387.38
2018-07-07T01:17:51.075Z,98395.75
2018-07-07T01:20:20.335Z,98389.25
2018-07-07T01:22:49.570Z,98391.94
2018-07-07T01:25:18.577Z,98383.85
2018-07-07T01:27:47.741Z,98394.33
2018-07-07T01:30:17.003Z,98393.23
2018-07-07T01:32:46.239Z,98392.66
2018-07-07T01:35:15.443Z,98391.05
2018-07-07T01:37:44.633Z,98387.02
2018-07-07T01:40:13.883Z,98391.24
2018-07-07T01:42:43.066Z,98384.21
2018-07-07T01:45:12.106Z,98389.28
2018-07-07T01:47:41.256Z,98392.77
2018-07-07T01:50:10.617Z,98391.00
2018-07-07T01:52:39.810Z,98384.79
2018-07-07T01:55:09.046Z,98389.81
2018-07-07T01:57:38.233Z,98388.99
2018-07-07T02:00:07.468Z,98383.92
2018-07-07T02:02:36.703Z,98385.26
2018-07-07T02:05:05.951Z,98388.14
2018-07-07T02:07:35.150Z,98391.33
2018-07-07T02:10:04.379Z,98393.54
2018-07-07T02:12:33.606Z,98395.36
2018-07-07T02:15:02.824Z,98398.52
2018-07-07T02:17:32.131Z,98393.97
2018-07-07T02:20:01.364Z,98403.21
2018-07-07T02:22:30.578Z,98395.16
2018-07-07T02:24:59.808Z,98401.83
2018-07-07T02:27:29.014Z,98399.63
2018-07-07T02:29:58.200Z,98395.31
2018-07-07T02:32:27.443Z,98411.38
2018-07-07T02:34:56.655Z,98410.56
2018-07-07T02:37:25.897Z,98411.91
2018-07-07T02:39:55.197Z,98408.56
2018-07-07T02:42:24.403Z,98404.55
2018-07-07T02:44:53.603Z,98413.34
2018-07-07T02:47:22.839Z,98415.16
2018-07-07T02:49:52.071Z,98412.00
2018-07-07T02:52:21.303Z,98410.67
2018-07-07T02:54:50.520Z,98417.94
2018-07-07T02:57:19.820Z,98410.44
2018-07-07T02:59:48.791Z,98411.25
2018-07-07T03:02:18.020Z,98409.14
2018-07-07T03:04:47.212Z,98411.83
2018-07-07T03:07:16.459Z,98407.31
2018-07-07T03:09:45.674Z,98412.72
2018-07-07T03:12:14.859Z,98408.98
2018-07-07T03:14:44.055Z,98412.20
2018-07-07T03:17:13.275Z,98414.34
2018-07-07T03:19:42.461Z,98419.23
2018-07-07T03:22:11.763Z,98413.34
2018-07-07T03:24:40.943Z,98418.38
2018-07-07T03:27:10.152Z,98419.42
2018-07-07T03:29:39.398Z,98420.44
2018-07-07T03:32:08.607Z,98422.02
2018-07-07T03:34:37.827Z,98424.13
2018-07-07T03:37:07.062Z,98432.44
2018-07-07T03:39:36.270Z,98426.04
2018-07-07T03:42:05.590Z,98427.42
2018-07-07T03:44:34.734Z,98426.89
2018-07-07T03:47:03.940Z,98428.28
2018-07-07T03:49:33.159Z,98426.17
2018-07-07T03:52:02.368Z,98429.14
2018-07-07T03:54:31.606Z,98434.06
2018-07-07T03:57:01.422Z,98433.33
2018-07-07T03:59:30.614Z,98435.80
2018-07-07T04:01:59.855Z,98432.09
2018-07-07T04:04:29.087Z,98436.43
2018-07-07T04:06:58.273Z,98437.52
2018-07-07T04:09:27.518Z,98429.50
2018-07-07T04:11:56.722Z,98427.62
2018-07-07T04:14:26.023Z,98420.95
2018-07-07T04:16:55.283Z,98419.38
2018-07-07T04:19:24.239Z,98426.39
2018-07-07T04:21:53.553Z,98425.34
2018-07-07T04:24:22.779Z,98428.30
2018-07-07T04:26:52.010Z,98422.69
2018-07-07T04:29:21.390Z,98420.56
2018-07-07T04:31:50.639Z,98418.95
2018-07-07T04:34:19.896Z,98426.51
2018-07-07T04:36:49.136Z,98430.80
2018-07-07T04:39:18.383Z,98433.53
2018-07-07T04:41:47.594Z,98428.97
2018-07-07T04:44:16.794Z,98428.12
2018-07-07T04:46:46.003Z,98426.80
2018-07-07T04:49:15.303Z,98430.84
2018-07-07T04:51:44.506Z,98430.58
2018-07-07T04:54:13.775Z,98431.91
2018-07-07T04:56:42.971Z,98430.03
2018-07-07T04:59:11.982Z,98419.54
2018-07-07T05:01:41.267Z,98425.72
2018-07-07T05:04:10.495Z,98428.42
2018-07-07T05:06:39.490Z,98427.59
2018-07-07T05:09:08.729Z,98425.66
2018-07-07T05:11:37.790Z,98431.55
2018-07-07T05:14:07.110Z,98434.40
2018-07-07T05:16:36.298Z,98430.41
2018-07-07T05:19:05.551Z,98441.23
2018-07-07T05:21:34.802Z,98442.40
2018-07-07T05:24:04.028Z,98431.13
2018-07-07T05:26:33.365Z,98437.78
2018-07-07T05:29:02.674Z,98444.45
2018-07-07T05:31:31.946Z,98438.94
2018-07-07T05:34:00.929Z,98441.34
2018-07-07T05:36:30.212Z,98445.42
2018-07-07T05:38:59.429Z,98442.09
2018-07-07T05:41:28.651Z,98438.63
2018-07-07T05:43:57.907Z,98446.59
2018-07-07T05:46:27.170Z,98440.54
2018-07-07T05:48:56.523Z,98440.91
2018-07-07T05:51:25.875Z,98443.70
2018-07-07T05:53:55.320Z,98441.03
2018-07-07T05:56:24.655Z,98441.48
2018-07-07T05:58:53.988Z,98446.22
2018-07-07T06:01:23.607Z,98448.16
2018-07-07T06:03:52.827Z,98444.67
2018-07-07T06:06:22.078Z,98451.01
2018-07-07T06:08:51.315Z,98450.14
2018-07-07T06:11:20.522Z,98451.11
2018-07-07T06:13:49.882Z,98450.81
2018-07-07T06:16:19.137Z,98457.11
2018-07-07T06:18:48.398Z,98458.85
2018-07-07T06:21:17.634Z,98457.77
2018-07-07T06:23:46.895Z,98462.69
2018-07-07T06:26:16.180Z,98466.56
2018-07-07T06:28:45.479Z,98459.59
2018-07-07T06:31:14.706Z,98460.53
2018-07-07T06:33:44.110Z,98463.72
2018-07-07T06:36:13.412Z,98470.83
2018-07-07T06:38:42.914Z,98466.78
2018-07-07T06:41:12.239Z,98465.16
2018-07-07T06:43:41.479Z,98468.53
2018-07-07T06:46:10.810Z,98471.06
2018-07-07T06:48:40.036Z,98472.88
2018-07-07T06:51:09.287Z,98466.02
2018-07-07T06:53:38.712Z,98470.48
2018-07-07T06:56:08.029Z,98476.86
2018-07-07T06:58:37.262Z,98474.14
2018-07-07T07:01:06.539Z,98474.97
2018-07-07T07:03:35.757Z,98471.05
2018-07-07T07:06:05.065Z,98475.23
2018-07-07T07:08:34.346Z,98467.61
2018-07-07T07:11:03.590Z,98466.89
2018-07-07T07:13:32.863Z,98468.98
2018-07-07T07:16:02.212Z,98469.98
2018-07-07T07:18:31.434Z,98471.76
2018-07-07T07:21:00.655Z,98470.27
2018-07-07T07:23:29.886Z,98466.76
2018-07-07T07:25:59.214Z,98467.63
2018-07-07T07:28:28.507Z,98465.35
2018-07-07T07:30:57.848Z,98466.14
2018-07-07T07:33:27.082Z,98464.13
2018-07-07T07:35:56.314Z,98466.64
2018-07-07T07:38:25.554Z,98467.76
2018-07-07T07:40:54.767Z,98464.44
2018-07-07T07:43:23.978Z,98458.75
2018-07-07T07:45:54.281Z,98458.21
2018-07-07T07:48:24.116Z,98456.59
2018-07-07T07:50:53.268Z,98450.50
2018-07-07T07:53:22.553Z,98452.67
2018-07-07T07:55:51.902Z,98450.58
2018-07-07T07:58:21.130Z,98455.38
2018-07-07T08:00:50.401Z,98452.42
2018-07-07T08:03:19.734Z,98451.98
2018-07-07T08:05:48.973Z,98447.95
2018-07-07T08:08:18.567Z,98450.22
2018-07-07T08:10:48.710Z,98447.52
2018-07-07T08:13:18.210Z,98446.98
2018-07-07T08:15:47.461Z,98444.50
2018-07-07T08:18:18.241Z,98449.20
2018-07-07T08:20:48.578Z,98436.34
2018-07-07T08:23:17.787Z,98441.92
2018-07-07T08:25:47.120Z,98439.84
2018-07-07T08:28:16.469Z,98441.37
2018-07-07T08:30:45.803Z,98440.33
2018-07-07T08:33:15.089Z,98444.79
2018-07-07T08:35:44.196Z,98443.52
2018-07-07T08:38:15.261Z,98446.42
2018-07-07T08:40:44.974Z,98442.33
2018-07-07T08:43:16.774Z,98448.72
2018-07-07T08:45:46.562Z,98441.93
2018-07-07T08:48:16.597Z,98443.61
2018-07-07T08:50:46.827Z,98434.80
2018-07-07T08:53:16.257Z,98446.64
2018-07-07T08:55:46.391Z,98442.52
2018-07-07T08:58:15.784Z,98444.04
2018-07-07T09:00:45.756Z,98441.47
2018-07-07T09:03:15.036Z,98442.00
2018-07-07T09:05:44.445Z,98442.17
2018-07-07T09:08:14.613Z,98437.67
2018-07-07T09:10:44.213Z,98444.20
2018-07-07T09:13:13.559Z,98439.29
2018-07-07T09:15:42.878Z,98432.47
2018-07-07T09:18:12.200Z,98438.10
2018-07-07T09:20:41.451Z,98435.34
2018-07-07T09:23:10.805Z,98434.23
2018-07-07T09:25:40.103Z,98427.69
2018-07-07T09:28:09.338Z,98430.34
2018-07-07T09:30:38.624Z,98426.38
2018-07-07T09:33:07.642Z,98424.78
2018-07-07T09:35:37.008Z,98428.28
2018-07-07T09:38:06.308Z,98422.25
2018-07-07T09:40:35.596Z,98429.33
2018-07-07T09:43:04.877Z,98431.67
2018-07-07T09:45:34.113Z,98428.52
2018-07-07T09:48:03.596Z,98435.97
2018-07-07T09:50:33.011Z,98434.57
2018-07-07T09:53:02.259Z,98427.02
2018-07-07T09:55:31.559Z,98430.20
2018-07-07T09:58:00.596Z,98429.19
2018-07-07T10:00:35.293Z,98429.66
2018-07-07T10:03:04.590Z,98423.59
2018-07-07T10:05:33.898Z,98424.20
2018-07-07T10:08:03.226Z,98421.01
2018-07-07T10:10:32.674Z,98421.67
2018-07-07T10:13:01.983Z,98425.66
2018-07-07T10:15:31.257Z,98424.55
2018-07-07T10:18:00.553Z,98421.10
2018-07-07T10:20:29.826Z,98425.06
2018-07-07T10:22:59.119Z,98427.61
2018-07-07T10:25:28.403Z,98429.68
2018-07-07T10:27:57.700Z,98424.44
2018-07-07T10:30:27.060Z,98423.40
2018-07-07T10:32:56.371Z,98424.45
2018-07-07T10:35:25.669Z,98428.42
2018-07-07T10:37:54.959Z,98423.72
2018-07-07T10:40:24.242Z,98420.12
2018-07-07T10:42:53.479Z,98412.02
2018-07-07T10:45:22.767Z,98414.17
2018-07-07T10:47:51.958Z,98407.66
2018-07-07T10:50:21.218Z,98411.71
2018-07-07T10:52:50.508Z,98418.01
2018-07-07T10:55:19.787Z,98414.16
2018-07-07T10:57:49.081Z,98412.33
2018-07-07T11:00:18.393Z,98406.94
2018-07-07T11:02:47.648Z,98400.84
2018-07-07T11:05:16.887Z,98400.58
2018-07-07T11:07:46.201Z,98402.84
2018-07-07T11:10:15.593Z,98399.87
2018-07-07T11:12:44.967Z,98402.50
2018-07-07T11:15:14.284Z,98401.85
2018-07-07T11:17:43.593Z,98401.22
2018-07-07T11:20:12.843Z,98400.53
2018-07-07T11:22:42.091Z,98396.78
2018-07-07T11:25:11.332Z,98395.58
2018-07-07T11:27:40.622Z,98390.38
2018-07-07T11:30:10.008Z,98391.00
2018-07-07T11:32:39.276Z,98391.13
2018-07-07T11:35:08.518Z,98393.34
2018-07-07T11:37:37.804Z,98395.92
2018-07-07T11:40:07.131Z,98395.64
2018-07-07T11:42:36.455Z,98392.56
2018-07-07T11:45:05.785Z,98380.87
2018-07-07T11:47:35.121Z,98389.45
2018-07-07T11:50:04.548Z,98383.51
2018-07-07T11:52:33.874Z,98382.11
2018-07-07T11:55:03.097Z,98382.61
2018-07-07T11:57:32.359Z,98382.51
2018-07-07T12:00:01.722Z,98377.02
2018-07-07T12:02:31.032Z,98378.44
2018-07-07T12:05:00.303Z,98385.10
2018-07-07T12:07:29.609Z,98382.47
2018-07-07T12:09:58.953Z,98379.30
2018-07-07T12:12:28.267Z,98375.53
2018-07-07T12:14:57.602Z,98373.81
2018-07-07T12:17:27.004Z,98375.25
2018-07-07T12:19:56.263Z,98368.50
2018-07-07T12:22:25.783Z,98366.56
2018-07-07T12:24:55.150Z,98366.50
2018-07-07T12:27:24.423Z,98366.77
2018-07-07T12:29:53.802Z,98367.70
2018-07-07T12:32:22.963Z,98358.94
2018-07-07T12:34:52.278Z,98352.83
2018-07-07T12:37:21.643Z,98352.62
2018-07-07T12:39:50.701Z,98355.02
2018-07-07T12:42:20.221Z,98354.97
2018-07-07T12:44:49.524Z,98350.20
2018-07-07T12:47:18.790Z,98351.79
2018-07-07T12:49:47.863Z,98351.80
2018-07-07T12:52:17.228Z,98340.03
2018-07-07T12:54:46.539Z,98344.60
2018-07-07T12:57:15.810Z,98344.02
2018-07-07T12:59:45.281Z,98341.34
2018-07-07T13:02:14.563Z,98343.44
2018-07-07T13:04:43.886Z,98350.70
2018-07-07T13:07:13.149Z,98345.80
2018-07-07T13:09:42.524Z,98341.94
2018-07-07T13:12:11.863Z,98338.22
2018-07-07T13:14:41.905Z,98334.36
2018-07-07T13:17:11.882Z,98336.12
2018-07-07T13:19:41.284Z,98328.45
2018-07-07T13:22:10.597Z,98328.20
2018-07-07T13:24:40.747Z,98321.75
2018-07-07T13:27:10.313Z,98326.69
2018-07-07T13:29:39.609Z,98329.55
2018-07-07T13:32:09.875Z,98329.66
2018-07-07T13:34:40.050Z,98329.66
2018-07-07T13:37:09.368Z,98332.06
2018-07-07T13:39:39.987Z,98332.87
2018-07-07T13:42:10.759Z,98334.02
2018-07-07T13:44:40.461Z,98328.88
2018-07-07T13:47:10.045Z,98326.80
2018-07-07T13:49:39.741Z,98321.20
2018-07-07T13:52:09.101Z,98318.08
2018-07-07T13:54:38.399Z,98322.31
2018-07-07T13:57:07.758Z,98314.02
2018-07-07T13:59:36.853Z,98308.84
2018-07-07T14:02:06.330Z,98322.82
2018-07-07T14:04:35.679Z,98321.75
2018-07-07T14:07:05.148Z,98315.38
2018-07-07T14:09:34.672Z,98322.80
2018-07-07T14:12:06.304Z,98314.36
2018-07-07T14:14:36.343Z,98311.98
2018-07-07T14:17:08.000Z,98312.79
2018-07-07T14:19:40.247Z,98313.16
2018-07-07T14:22:09.781Z,98310.98
2018-07-07T14:24:39.800Z,98310.27
2018-07-07T14:27:11.831Z,98301.55
2018-07-07T14:29:43.292Z,98297.88
2018-07-07T14:32:14.986Z,98304.25
2018-07-07T14:34:47.499Z,98300.75
2018-07-07T14:37:17.440Z,98301.52
2018-07-07T14:39:58.364Z,98300.96
2018-07-07T14:42:44.179Z,98304.44
2018-07-07T14:45:34.939Z,98290.19
2018-07-07T14:48:08.978Z,98294.39
2018-07-07T14:50:43.012Z,98287.33
2018-07-07T14:53:15.022Z,98297.17
2018-07-07T14:55:46.436Z,98292.89
2018-07-07T14:58:18.505Z,98285.69
2018-07-07T15:00:50.330Z,98293.86
2018-07-07T15:03:22.188Z,98285.28
2018-07-07T15:05:53.090Z,98287.28
2018-07-07T15:08:23.836Z,98289.50
2018-07-07T15:10:53.226Z,98289.55
2018-07-07T15:13:22.483Z,98287.17
2018-07-07T15:15:51.797Z,98286.25
2018-07-07T15:18:21.778Z,98290.64
2018-07-07T15:20:51.786Z,98287.49
2018-07-07T15:23:23.996Z,98285.67
2018-07-07T15:25:57.490Z,98286.92
2018-07-07T15:28:26.887Z,98289.22
2018-07-07T15:30:56.241Z,98286.27
2018-07-07T15:33:25.610Z,98280.46
2018-07-07T15:35:54.971Z,98284.66
2018-07-07T15:38:24.306Z,98288.77
2018-07-07T15:40:53.685Z,98279.19
2018-07-07T15:43:23.107Z,98281.14
2018-07-07T15:45:52.470Z,98276.50
2018-07-07T15:48:21.784Z,98273.39
2018-07-07T15:50:51.155Z,98271.56
2018-07-07T15:53:20.530Z,98271.77
2018-07-07T15:55:49.897Z,98267.03
2018-07-07T15:58:19.302Z,98272.01
2018-07-07T16:00:48.745Z,98270.64
2018-07-07T16:03:18.066Z,98267.70
2018-07-07T16:05:47.425Z,98272.19
2018-07-07T16:08:16.795Z,98270.08
2018-07-07T16:10:46.151Z,98270.19
2018-07-07T16:13:15.565Z,98267.75
2018-07-07T16:15:44.867Z,98268.55
2018-07-07T16:18:14.189Z,98261.89
2018-07-07T16:20:46.867Z,98263.93
2018-07-07T16:23:33.463Z,98260.87
2018-07-07T16:29:21.862Z,98257.67
2018-07-07T16:32:18.032Z,98247.95
2018-07-07T16:35:41.437Z,98242.19
2018-07-07T16:38:14.595Z,98248.30
2018-07-07T16:40:45.232Z,98250.15
2018-07-07T16:43:16.793Z,98252.99
2018-07-07T16:45:48.588Z,98250.13
2018-07-07T16:48:19.281Z,98246.19
2018-07-07T16:50:48.574Z,98240.39
2018-07-07T16:53:17.958Z,98239.20
2018-07-07T16:55:48.301Z,98247.03
2018-07-07T16:58:17.616Z,98247.45
2018-07-07T17:00:47.065Z,98244.23
2018-07-07T17:03:16.424Z,98242.47
2018-07-07T17:05:45.760Z,98238.26
2018-07-07T17:08:15.788Z,98244.91
2018-07-07T17:10:45.389Z,98241.25
2018-07-07T17:13:14.999Z,98242.05
2018-07-07T17:15:44.446Z,98238.73
2018-07-07T17:18:13.721Z,98235.69
2018-07-07T17:20:42.951Z,98235.00
2018-07-07T17:23:12.218Z,98244.98
2018-07-07T17:25:41.489Z,98239.86
2018-07-07T17:28:10.860Z,98242.20
2018-07-07T17:30:40.208Z,98246.87
2018-07-07T17:33:09.467Z,98245.95
2018-07-07T17:35:38.734Z,98246.53
2018-07-07T17:38:07.981Z,98252.59
2018-07-07T17:40:37.375Z,98245.63
2018-07-07T17:43:06.675Z,98250.17
2018-07-07T17:45:36.303Z,98250.16
2018-07-07T17:48:05.637Z,98251.92
2018-07-07T17:50:34.947Z,98251.78
2018-07-07T17:53:04.726Z,98250.45
2018-07-07T17:55:34.095Z,98244.60
2018-07-07T17:58:03.499Z,98244.98
2018-07-07T18:00:32.906Z,98245.83
2018-07-07T18:03:03.015Z,98242.55
2018-07-07T18:05:32.379Z,98248.85
2018-07-07T18:08:01.662Z,98246.56
2018-07-07T18:10:31.051Z,98239.89
2018-07-07T18:13:00.415Z,98243.19
2018-07-07T18:15:37.468Z,98242.53
2018-07-07T18:18:10.815Z,98244.39
2018-07-07T18:20:41.569Z,98236.80
2018-07-07T18:23:12.301Z,98249.02
2018-07-07T18:25:46.622Z,98242.63
2018-07-07T18:28:16.902Z,98242.38
2018-07-07T18:30:46.995Z,98240.63
2018-07-07T18:33:18.219Z,98237.69
2018-07-07T18:35:48.323Z,98239.03
2018-07-07T18:38:18.997Z,98243.48
2018-07-07T18:40:50.097Z,98246.20
2018-07-07T18:43:20.171Z,98249.38
2018-07-07T18:45:50.972Z,98253.84
2018-07-07T18:48:20.327Z,98247.47
2018-07-07T18:50:49.696Z,98253.46
2018-07-07T18:53:18.702Z,98251.44
2018-07-07T18:55:48.132Z,98261.63
2018-07-07T18:58:17.169Z,98252.84
2018-07-07T19:00:46.461Z,98257.85
2018-07-07T19:03:15.724Z,98251.58
2018-07-07T19:05:45.769Z,98260.66
2018-07-07T19:08:15.148Z,98264.13
2018-07-07T19:10:44.509Z,98263.45
2018-07-07T19:13:13.822Z,98262.17
2018-07-07T19:15:46.389Z,98260.77
2018-07-07T19:18:16.092Z,98262.91
2018-07-07T19:20:50.692Z,98265.78
2018-07-07T19:23:25.312Z,98262.86
2018-07-07T19:25:59.888Z,98267.17
2018-07-07T19:28:29.225Z,98270.50
2018-07-07T19:30:58.435Z,98273.91
2018-07-07T19:33:32.919Z,98272.92
2018-07-07T19:36:07.373Z,98271.87
2018-07-07T19:38:36.646Z,98274.77
2018-07-07T19:41:05.778Z,98284.30
2018-07-07T19:43:35.108Z,98284.30
2018-07-07T19:46:04.441Z,98291.16
2018-07-07T19:48:33.783Z,98284.81
2018-07-07T19:51:03.091Z,98292.36
2018-07-07T19:53:32.380Z,98291.38
2018-07-07T19:56:01.785Z,98293.53
2018-07-07T19:58:31.150Z,98293.86
2018-07-07T20:01:00.447Z,98293.86
2018-07-07T20:03:29.758Z,98289.58
2018-07-07T20:05:59.083Z,98291.70
2018-07-07T20:08:28.369Z,98294.37
2018-07-07T20:10:57.641Z,98295.94
2018-07-07T20:13:26.902Z,98293.40
2018-07-07T20:16:17.288Z,98291.59
2018-07-07T20:19:16.476Z,98292.58
2018-07-07T20:22:04.360Z,98292.13
2018-07-07T20:24:39.587Z,98289.42
2018-07-07T20:27:14.853Z,98294.64
2018-07-07T20:29:44.263Z,98297.09
2018-07-07T20:32:18.835Z,98299.80
2018-07-07T20:34:48.103Z,98297.44
2018-07-07T20:37:17.399Z,98301.14
2018-07-07T20:39:46.761Z,98298.91
2018-07-07T20:42:16.037Z,98303.95
2018-07-07T20:44:45.341Z,98303.00
2018-07-07T20:47:14.640Z,98304.16
2018-07-07T20:49:43.874Z,98298.92
2018-07-07T20:52:12.956Z,98296.38
2018-07-07T20:54:42.461Z,98298.28
2018-07-07T20:57:11.714Z,98297.64
2018-07-07T20:59:40.963Z,98306.64
2018-07-07T21:02:10.209Z,98297.52
2018-07-07T21:04:39.366Z,98297.84
2018-07-07T21:07:08.627Z,98296.65
2018-07-07T21:09:37.829Z,98294.42
2018-07-07T21:12:07.195Z,98298.92
2018-07-07T21:14:36.445Z,98296.17
2018-07-07T21:17:05.830Z,98296.27
2018-07-07T21:19:35.267Z,98296.41
2018-07-07T21:22:04.249Z,98302.10
2018-07-07T21:24:33.521Z,98302.13
2018-07-07T21:27:02.757Z,98305.30
2018-07-07T21:29:31.975Z,98307.11
2018-07-07T21:32:01.229Z,98305.86
2018-07-07T21:34:30.570Z,98311.06
2018-07-07T21:36:59.916Z,98305.03
2018-07-07T21:39:29.166Z,98305.54
2018-07-07T21:41:58.736Z,98305.20
2018-07-07T21:44:28.046Z,98304.20
2018-07-07T21:46:57.011Z,98308.89
2018-07-07T21:49:26.359Z,98300.31
2018-07-07T21:51:55.747Z,98303.46
2018-07-07T21:54:24.986Z,98303.95
2018-07-07T21:56:55.750Z,98310.81
2018-07-07T21:59:25.410Z,98307.97
2018-07-07T22:02:00.280Z,98302.41
2018-07-07T22:04:35.724Z,98301.70
2018-07-07T22:07:12.131Z,98300.95
2018-07-07T22:09:41.893Z,98300.43
2018-07-07T22:12:11.116Z,98304.53
2018-07-07T22:14:40.451Z,98302.64
2018-07-07T22:17:09.702Z,98300.58
2018-07-07T22:19:38.907Z,98303.33
2018-07-07T22:22:09.263Z,98302.52
2018-07-07T22:24:39.382Z,98299.30
2018-07-07T22:27:09.833Z,98301.17
2018-07-07T22:29:39.051Z,98303.38
2018-07-07T22:32:13.678Z,98299.61
2018-07-07T22:34:43.094Z,98302.84
2018-07-07T22:37:12.309Z,98304.62
2018-07-07T22:39:43.535Z,98303.81
2018-07-07T22:42:15.844Z,98301.67
2018-07-07T22:44:46.303Z,98300.14
2018-07-07T22:47:15.627Z,98297.50
2018-07-07T22:49:44.910Z,98298.58
2018-07-07T22:52:14.201Z,98292.95
2018-07-07T22:54:43.505Z,98300.78
2018-07-07T22:57:12.711Z,98295.97
2018-07-07T22:59:41.904Z,98295.70
2018-07-07T23:02:11.127Z,98295.44
2018-07-07T23:04:40.371Z,98291.66
2018-07-07T23:07:09.575Z,98299.20
2018-07-07T23:09:38.795Z,98290.80
2018-07-07T23:12:08.016Z,98283.02
2018-07-07T23:14:37.246Z,98283.70
2018-07-07T23:17:06.439Z,98289.91
2018-07-07T23:19:35.687Z,98280.47
2018-07-07T23:22:04.891Z,98287.79
2018-07-07T23:24:34.151Z,98286.40
2018-07-07T23:27:03.443Z,98290.80
2018-07-07T23:29:32.663Z,98289.69
2018-07-07T23:32:01.884Z,98293.59
2018-07-07T23:34:31.196Z,98293.37
2018-07-07T23:37:00.435Z,98297.19
2018-07-07T23:39:29.659Z,98291.02
2018-07-07T23:41:58.866Z,98285.36
2018-07-07T23:44:28.085Z,98291.56
2018-07-07T23:46:57.326Z,98291.88
2018-07-07T23:49:26.532Z,98292.22
2018-07-07T23:51:55.706Z,98288.45
2018-07-07T23:54:24.942Z,98290.08
2018-07-07T23:56:54.194Z,98282.83
2018-07-07T23:59:23.406Z,98286.91
